createdAt,value
2017-04-10T00:00:14.770Z,1004.17
2017-04-10T00:00:41.251Z,1003.88
2017-04-10T00:01:02.981Z,1004.07
2017-04-10T00:01:24.700Z,1004.21
2017-04-10T00:01:51.176Z,1004.00
2017-04-10T00:02:12.884Z,1004.00
2017-04-10T00:02:34.596Z,1004.08
2017-04-10T00:03:01.071Z,1004.11
2017-04-10T00:03:22.801Z,1004.02
2017-04-10T00:04:15.766Z,1004.01
2017-04-10T00:04:42.254Z,1004.10
2017-04-10T00:05:03.953Z,1003.91
2017-04-10T00:06:04.677Z,1004.18
2017-04-10T00:06:26.377Z,1004.01
2017-04-10T00:07:19.407Z,1003.96
2017-04-10T00:07:45.894Z,1003.90
2017-04-10T00:08:07.603Z,1003.77
2017-04-10T00:08:29.296Z,1003.88
2017-04-10T00:08:51.014Z,1004.05
2017-04-10T00:09:12.732Z,1004.07
2017-04-10T00:09:34.546Z,1004.02
2017-04-10T00:09:56.248Z,1003.89
2017-04-10T00:10:17.960Z,1003.99
2017-04-10T00:10:44.443Z,1003.97
2017-04-10T00:11:06.145Z,1003.95
2017-04-10T00:11:27.854Z,1003.93
2017-04-10T00:11:54.321Z,1004.02
2017-04-10T00:12:16.017Z,1003.79
2017-04-10T00:13:08.967Z,1003.80
2017-04-10T00:14:07.276Z,1004.01
2017-04-10T00:14:33.748Z,1004.02
2017-04-10T00:14:55.445Z,1003.82
2017-04-10T00:15:17.143Z,1003.77
2017-04-10T00:15:43.631Z,1003.84
2017-04-10T00:16:05.327Z,1003.70
2017-04-10T00:16:31.823Z,1003.75
2017-04-10T00:16:53.519Z,1003.93
2017-04-10T00:17:15.222Z,1003.85
2017-04-10T00:17:41.720Z,1004.07
2017-04-10T00:18:03.435Z,1004.00
2017-04-10T00:18:25.149Z,1003.75
2017-04-10T00:18:51.629Z,1003.81
2017-04-10T00:19:13.365Z,1003.81
2017-04-10T00:19:39.845Z,1003.98
2017-04-10T00:20:01.544Z,1004.01
2017-04-10T00:20:23.242Z,1003.90
2017-04-10T00:20:44.944Z,1004.01
2017-04-10T00:21:06.657Z,1003.78
2017-04-10T00:21:59.646Z,1003.94
2017-04-10T00:22:26.149Z,1003.65
2017-04-10T00:22:47.881Z,1003.93
2017-04-10T00:23:09.582Z,1004.04
2017-04-10T00:23:36.048Z,1004.08
2017-04-10T00:23:57.746Z,1003.62
2017-04-10T00:24:24.218Z,1003.77
2017-04-10T00:24:45.926Z,1003.67
2017-04-10T00:25:07.620Z,1003.94
2017-04-10T00:25:34.092Z,1003.94
2017-04-10T00:25:55.811Z,1003.85
2017-04-10T00:26:22.301Z,1003.76
2017-04-10T00:26:43.991Z,1003.71
2017-04-10T00:27:10.473Z,1003.84
2017-04-10T00:27:34.364Z,1004.00
2017-04-10T00:27:56.097Z,1004.00
2017-04-10T00:28:22.577Z,1003.99
2017-04-10T00:28:44.272Z,1003.88
2017-04-10T00:29:06.066Z,1004.04
2017-04-10T00:29:27.774Z,1003.96
2017-04-10T00:29:49.492Z,1003.69
2017-04-10T00:30:42.457Z,1003.71
2017-04-10T00:31:40.761Z,1003.81
2017-04-10T00:32:02.466Z,1004.00
2017-04-10T00:32:24.204Z,1003.90
2017-04-10T00:32:50.688Z,1003.51
2017-04-10T00:33:12.377Z,1003.99
2017-04-10T00:33:34.082Z,1003.72
2017-04-10T00:34:36.586Z,1003.64
2017-04-10T00:35:03.060Z,1003.75
2017-04-10T00:36:01.338Z,1003.68
2017-04-10T00:36:23.040Z,1003.79
2017-04-10T00:37:21.357Z,1003.79
2017-04-10T00:37:47.828Z,1003.90
2017-04-10T00:38:40.818Z,1003.74
2017-04-10T00:39:07.320Z,1003.85
2017-04-10T00:39:29.082Z,1003.69
2017-04-10T00:39:50.771Z,1003.54
2017-04-10T00:40:12.472Z,1003.96
2017-04-10T00:40:34.182Z,1003.76
2017-04-10T00:40:55.884Z,1003.94
2017-04-10T00:41:51.706Z,1003.63
2017-04-10T00:42:18.235Z,1003.79
2017-04-10T00:42:39.904Z,1003.67
2017-04-10T00:43:32.866Z,1003.61
2017-04-10T00:43:54.563Z,1003.56
2017-04-10T00:44:21.044Z,1003.74
2017-04-10T00:44:42.733Z,1003.54
2017-04-10T00:45:04.434Z,1003.61
2017-04-10T00:45:30.906Z,1003.67
2017-04-10T00:45:52.614Z,1003.63
2017-04-10T00:46:19.088Z,1003.91
2017-04-10T00:46:40.775Z,1003.87
2017-04-10T00:47:02.481Z,1003.77
2017-04-10T00:47:24.255Z,1003.57
2017-04-10T00:47:45.967Z,1003.51
2017-04-10T00:48:12.442Z,1003.48
2017-04-10T00:48:34.154Z,1003.71
2017-04-10T00:48:55.923Z,1003.78
2017-04-10T00:49:17.631Z,1003.72
2017-04-10T00:49:39.317Z,1003.52
2017-04-10T00:50:01.018Z,1003.58
2017-04-10T00:50:22.816Z,1003.72
2017-04-10T00:50:44.513Z,1003.49
2017-04-10T00:51:06.209Z,1003.72
2017-04-10T00:51:27.908Z,1003.74
2017-04-10T00:51:49.692Z,1003.97
2017-04-10T00:52:11.383Z,1003.58
2017-04-10T00:52:33.110Z,1003.53
2017-04-10T00:52:54.815Z,1003.41
2017-04-10T00:53:16.600Z,1003.54
2017-04-10T00:53:38.295Z,1003.58
2017-04-10T00:54:00.006Z,1003.55
2017-04-10T00:54:21.705Z,1003.68
2017-04-10T00:55:14.749Z,1003.38
2017-04-10T00:55:36.464Z,1003.60
2017-04-10T00:56:02.940Z,1003.42
2017-04-10T00:56:24.733Z,1003.66
2017-04-10T00:56:46.435Z,1003.42
2017-04-10T00:57:12.914Z,1003.28
2017-04-10T00:57:34.680Z,1003.62
2017-04-10T00:58:01.158Z,1003.66
2017-04-10T00:58:22.963Z,1003.74
2017-04-10T00:58:49.450Z,1003.62
2017-04-10T00:59:11.144Z,1003.58
2017-04-10T00:59:37.619Z,1003.40
2017-04-10T00:59:59.417Z,1003.27
2017-04-10T01:00:21.105Z,1003.49
2017-04-10T01:00:42.812Z,1003.38
2017-04-10T01:01:04.597Z,1003.48
2017-04-10T01:01:26.289Z,1003.36
2017-04-10T01:01:47.993Z,1003.39
2017-04-10T01:02:09.698Z,1003.41
2017-04-10T01:02:31.471Z,1003.41
2017-04-10T01:02:53.174Z,1003.51
2017-04-10T01:03:46.201Z,1003.52
2017-04-10T01:04:12.671Z,1003.70
2017-04-10T01:04:34.357Z,1003.44
2017-04-10T01:04:56.048Z,1003.43
2017-04-10T01:05:17.835Z,1003.38
2017-04-10T01:05:39.537Z,1003.40
2017-04-10T01:06:42.114Z,1003.43
2017-04-10T01:07:03.806Z,1003.41
2017-04-10T01:07:25.502Z,1003.36
2017-04-10T01:07:51.985Z,1003.27
2017-04-10T01:08:13.776Z,1003.55
2017-04-10T01:08:35.485Z,1003.55
2017-04-10T01:09:28.538Z,1003.32
2017-04-10T01:09:50.239Z,1003.31
2017-04-10T01:10:11.943Z,1003.24
2017-04-10T01:10:33.729Z,1003.30
2017-04-10T01:10:55.429Z,1003.43
2017-04-10T01:11:21.905Z,1003.24
2017-04-10T01:11:43.686Z,1003.30
2017-04-10T01:12:05.383Z,1003.13
2017-04-10T01:12:31.876Z,1003.29
2017-04-10T01:12:53.661Z,1003.38
2017-04-10T01:13:51.960Z,1003.30
2017-04-10T01:14:13.751Z,1003.51
2017-04-10T01:15:21.048Z,1003.44
2017-04-10T01:15:42.825Z,1003.37
2017-04-10T01:16:41.146Z,1003.34
2017-04-10T01:17:02.913Z,1003.43
2017-04-10T01:17:24.637Z,1003.42
2017-04-10T01:17:46.329Z,1003.43
2017-04-10T01:18:08.030Z,1003.38
2017-04-10T01:18:29.847Z,1003.30
2017-04-10T01:18:56.343Z,1003.23
2017-04-10T01:19:18.044Z,1003.20
2017-04-10T01:19:39.819Z,1003.04
2017-04-10T01:20:06.298Z,1003.09
2017-04-10T01:20:28.003Z,1003.27
2017-04-10T01:20:49.780Z,1003.26
2017-04-10T01:21:11.489Z,1003.27
2017-04-10T01:21:33.184Z,1003.07
2017-04-10T01:21:54.884Z,1003.15
2017-04-10T01:22:21.349Z,1003.19
2017-04-10T01:22:43.123Z,1003.22
2017-04-10T01:23:09.607Z,1003.07
2017-04-10T01:23:31.353Z,1003.49
2017-04-10T01:23:53.128Z,1003.49
2017-04-10T01:24:19.606Z,1003.45
2017-04-10T01:24:41.303Z,1003.59
2017-04-10T01:25:34.345Z,1003.05
2017-04-10T01:25:56.035Z,1003.13
2017-04-10T01:26:22.503Z,1003.40
2017-04-10T01:26:44.315Z,1002.92
2017-04-10T01:27:06.007Z,1002.97
2017-04-10T01:27:32.485Z,1002.91
2017-04-10T01:27:54.276Z,1003.37
2017-04-10T01:28:15.984Z,1003.28
2017-04-10T01:28:37.711Z,1003.33
2017-04-10T01:28:59.408Z,1003.20
2017-04-10T01:29:21.179Z,1003.17
2017-04-10T01:29:42.880Z,1003.29
2017-04-10T01:30:04.574Z,1003.27
2017-04-10T01:30:31.060Z,1003.21
2017-04-10T01:30:52.838Z,1003.22
2017-04-10T01:31:14.537Z,1003.12
2017-04-10T01:31:41.009Z,1003.11
2017-04-10T01:32:02.770Z,1003.19
2017-04-10T01:32:29.275Z,1003.29
2017-04-10T01:32:50.951Z,1003.08
2017-04-10T01:33:12.666Z,1003.08
2017-04-10T01:33:34.451Z,1003.18
2017-04-10T01:33:56.156Z,1003.33
2017-04-10T01:34:17.861Z,1003.04
2017-04-10T01:34:44.335Z,1003.08
2017-04-10T01:35:06.142Z,1003.25
2017-04-10T01:35:27.837Z,1003.02
2017-04-10T01:35:49.537Z,1003.19
2017-04-10T01:36:11.325Z,1003.15
2017-04-10T01:36:33.028Z,1003.07
2017-04-10T01:36:54.744Z,1003.16
2017-04-10T01:37:16.430Z,1003.06
2017-04-10T01:37:38.135Z,1003.22
2017-04-10T01:37:59.924Z,1003.27
2017-04-10T01:38:21.614Z,1002.96
2017-04-10T01:38:43.304Z,1003.26
2017-04-10T01:39:05.089Z,1002.98
2017-04-10T01:39:26.780Z,1003.33
2017-04-10T01:39:48.480Z,1003.27
2017-04-10T01:40:10.175Z,1003.11
2017-04-10T01:40:31.961Z,1003.02
2017-04-10T01:40:53.766Z,1003.15
2017-04-10T01:41:46.795Z,1003.17
2017-04-10T01:42:08.491Z,1003.18
2017-04-10T01:42:30.197Z,1003.13
2017-04-10T01:43:01.324Z,1003.10
2017-04-10T01:43:23.649Z,1003.13
2017-04-10T01:44:22.056Z,1002.91
2017-04-10T01:44:43.759Z,1003.00
2017-04-10T01:45:05.454Z,1003.24
2017-04-10T01:45:27.147Z,1003.30
2017-04-10T01:45:48.927Z,1003.27
2017-04-10T01:46:15.404Z,1003.16
2017-04-10T01:46:37.100Z,1003.29
2017-04-10T01:47:30.049Z,1003.47
2017-04-10T01:48:23.082Z,1003.26
2017-04-10T01:49:16.024Z,1003.08
2017-04-10T01:50:14.470Z,1002.85
2017-04-10T01:51:07.507Z,1003.11
2017-04-10T01:51:29.204Z,1003.06
2017-04-10T01:51:55.665Z,1003.02
2017-04-10T01:52:17.353Z,1003.14
2017-04-10T01:53:15.753Z,1003.20
2017-04-10T01:53:42.234Z,1003.06
2017-04-10T01:54:35.275Z,1003.12
2017-04-10T01:54:57.002Z,1003.01
2017-04-10T01:55:18.707Z,1003.05
2017-04-10T01:55:40.397Z,1003.06
2017-04-10T01:56:06.961Z,1003.12
2017-04-10T01:56:28.656Z,1003.19
2017-04-10T01:56:50.347Z,1003.06
2017-04-10T01:57:12.137Z,1002.94
2017-04-10T01:57:33.825Z,1002.89
2017-04-10T01:58:41.124Z,1003.19
2017-04-10T01:59:02.924Z,1003.01
2017-04-10T01:59:24.653Z,1002.94
2017-04-10T01:59:51.127Z,1002.98
2017-04-10T02:00:12.899Z,1003.04
2017-04-10T02:00:34.598Z,1002.92
2017-04-10T02:01:01.074Z,1003.16
2017-04-10T02:01:22.891Z,1003.00
2017-04-10T02:02:15.722Z,1002.97
2017-04-10T02:02:37.499Z,1002.83
2017-04-10T02:02:59.202Z,1002.92
2017-04-10T02:03:20.903Z,1003.23
2017-04-10T02:03:42.595Z,1003.13
2017-04-10T02:04:09.072Z,1003.08
2017-04-10T02:04:30.872Z,1002.89
2017-04-10T02:04:52.572Z,1002.89
2017-04-10T02:05:14.334Z,1003.00
2017-04-10T02:05:36.046Z,1002.97
2017-04-10T02:06:24.342Z,1003.00
2017-04-10T02:06:46.128Z,1003.07
2017-04-10T02:07:07.841Z,1003.08
2017-04-10T02:07:29.532Z,1002.97
2017-04-10T02:07:56.012Z,1003.05
2017-04-10T02:08:17.812Z,1003.05
2017-04-10T02:08:39.545Z,1002.89
2017-04-10T02:09:06.030Z,1003.06
2017-04-10T02:09:27.856Z,1003.02
2017-04-10T02:09:49.576Z,1002.93
2017-04-10T02:10:11.277Z,1002.94
2017-04-10T02:10:32.967Z,1002.93
2017-04-10T02:10:59.526Z,1002.85
2017-04-10T02:11:21.216Z,1002.93
2017-04-10T02:11:42.912Z,1002.95
2017-04-10T02:12:04.641Z,1002.92
2017-04-10T02:12:26.342Z,1002.76
2017-04-10T02:13:19.385Z,1003.06
2017-04-10T02:14:12.341Z,1002.90
2017-04-10T02:14:34.177Z,1002.98
2017-04-10T02:15:00.540Z,1002.89
2017-04-10T02:15:22.240Z,1002.88
2017-04-10T02:15:43.942Z,1002.75
2017-04-10T02:16:05.727Z,1002.84
2017-04-10T02:16:27.427Z,1002.84
2017-04-10T02:16:49.123Z,1003.08
2017-04-10T02:17:10.924Z,1002.88
2017-04-10T02:17:32.621Z,1002.78
2017-04-10T02:17:54.328Z,1002.73
2017-04-10T02:18:20.796Z,1003.08
2017-04-10T02:18:42.591Z,1002.88
2017-04-10T02:19:09.080Z,1002.88
2017-04-10T02:19:30.765Z,1002.98
2017-04-10T02:19:57.250Z,1002.85
2017-04-10T02:20:19.032Z,1002.86
2017-04-10T02:20:45.508Z,1002.93
2017-04-10T02:21:07.202Z,1002.95
2017-04-10T02:21:29.001Z,1002.87
2017-04-10T02:21:55.472Z,1002.86
2017-04-10T02:22:17.164Z,1002.78
2017-04-10T02:22:38.867Z,1002.97
2017-04-10T02:23:05.434Z,1002.78
2017-04-10T02:23:27.142Z,1002.96
2017-04-10T02:24:20.148Z,1002.84
2017-04-10T02:24:46.624Z,1002.88
2017-04-10T02:25:08.316Z,1002.83
2017-04-10T02:25:30.111Z,1002.83
2017-04-10T02:25:51.819Z,1002.91
2017-04-10T02:26:13.530Z,1002.84
2017-04-10T02:26:35.241Z,1002.81
2017-04-10T02:27:28.272Z,1003.00
2017-04-10T02:27:49.969Z,1002.79
2017-04-10T02:28:11.873Z,1002.78
2017-04-10T02:28:33.666Z,1002.81
2017-04-10T02:29:00.148Z,1002.83
2017-04-10T02:29:21.938Z,1002.81
2017-04-10T02:29:43.671Z,1002.90
2017-04-10T02:30:05.392Z,1002.83
2017-04-10T02:30:27.169Z,1002.70
2017-04-10T02:30:48.874Z,1002.89
2017-04-10T02:31:10.589Z,1002.94
2017-04-10T02:31:32.324Z,1002.70
2017-04-10T02:32:25.367Z,1002.90
2017-04-10T02:32:51.837Z,1002.66
2017-04-10T02:33:13.528Z,1002.76
2017-04-10T02:33:35.322Z,1002.77
2017-04-10T02:34:28.186Z,1002.80
2017-04-10T02:34:54.692Z,1002.72
2017-04-10T02:35:16.476Z,1003.01
2017-04-10T02:35:38.168Z,1002.93
2017-04-10T02:35:59.876Z,1002.87
2017-04-10T02:36:21.562Z,1002.86
2017-04-10T02:37:14.580Z,1002.86
2017-04-10T02:38:13.001Z,1002.94
2017-04-10T02:38:34.703Z,1002.78
2017-04-10T02:39:27.748Z,1002.90
2017-04-10T02:40:20.779Z,1002.60
2017-04-10T02:41:19.134Z,1002.75
2017-04-10T02:41:45.578Z,1002.88
2017-04-10T02:42:07.375Z,1002.72
2017-04-10T02:42:29.065Z,1002.72
2017-04-10T02:42:50.772Z,1002.70
2017-04-10T02:43:49.176Z,1002.58
2017-04-10T02:44:15.664Z,1002.82
2017-04-10T02:45:08.653Z,1002.70
2017-04-10T02:46:01.693Z,1002.80
2017-04-10T02:46:23.397Z,1002.74
2017-04-10T02:46:49.879Z,1002.76
2017-04-10T02:47:11.587Z,1002.51
2017-04-10T02:47:33.389Z,1002.76
2017-04-10T02:48:26.430Z,1002.73
2017-04-10T02:49:28.932Z,1002.80
2017-04-10T02:49:50.710Z,1002.66
2017-04-10T02:50:12.448Z,1002.56
2017-04-10T02:51:10.846Z,1002.69
2017-04-10T02:51:32.541Z,1002.68
2017-04-10T02:51:54.252Z,1002.62
2017-04-10T02:52:15.963Z,1002.65
2017-04-10T02:52:37.658Z,1002.80
2017-04-10T02:53:40.244Z,1002.90
2017-04-10T02:54:01.944Z,1002.85
2017-04-10T02:54:23.739Z,1002.76
2017-04-10T02:54:45.467Z,1002.72
2017-04-10T02:55:11.975Z,1002.66
2017-04-10T02:55:33.748Z,1002.69
2017-04-10T02:55:55.444Z,1002.49
2017-04-10T02:56:17.161Z,1002.55
2017-04-10T02:56:38.860Z,1002.55
2017-04-10T02:57:00.655Z,1002.82
2017-04-10T02:57:53.593Z,1002.48
2017-04-10T02:58:20.149Z,1002.35
2017-04-10T02:58:41.887Z,1002.59
2017-04-10T02:59:08.365Z,1002.51
2017-04-10T02:59:30.151Z,1002.52
2017-04-10T02:59:51.859Z,1002.85
2017-04-10T03:00:13.610Z,1002.66
2017-04-10T03:00:35.325Z,1002.65
2017-04-10T03:01:28.352Z,1002.42
2017-04-10T03:01:50.058Z,1002.68
2017-04-10T03:02:11.857Z,1002.76
2017-04-10T03:02:33.572Z,1002.65
2017-04-10T03:02:55.285Z,1002.44
2017-04-10T03:03:17.074Z,1002.64
2017-04-10T03:03:38.773Z,1002.60
2017-04-10T03:04:05.268Z,1002.65
2017-04-10T03:04:27.069Z,1002.41
2017-04-10T03:04:48.755Z,1002.43
2017-04-10T03:05:10.467Z,1002.40
2017-04-10T03:06:03.495Z,1002.44
2017-04-10T03:06:29.976Z,1002.46
2017-04-10T03:06:51.671Z,1002.60
2017-04-10T03:07:18.170Z,1002.57
2017-04-10T03:07:39.957Z,1002.37
2017-04-10T03:08:06.439Z,1002.27
2017-04-10T03:08:28.132Z,1002.51
2017-04-10T03:08:49.843Z,1002.58
2017-04-10T03:09:16.410Z,1002.50
2017-04-10T03:09:38.107Z,1002.49
2017-04-10T03:09:59.794Z,1002.61
2017-04-10T03:11:02.419Z,1002.44
2017-04-10T03:11:24.071Z,1002.47
2017-04-10T03:11:45.778Z,1002.37
2017-04-10T03:12:12.255Z,1002.32
2017-04-10T03:12:34.042Z,1002.27
2017-04-10T03:13:00.521Z,1002.37
2017-04-10T03:13:22.329Z,1002.57
2017-04-10T03:13:44.123Z,1002.48
2017-04-10T03:14:05.845Z,1002.46
2017-04-10T03:14:27.625Z,1002.35
2017-04-10T03:14:54.104Z,1002.14
2017-04-10T03:15:15.799Z,1002.31
2017-04-10T03:15:37.524Z,1002.33
2017-04-10T03:15:59.338Z,1002.41
2017-04-10T03:16:21.053Z,1002.51
2017-04-10T03:16:42.760Z,1002.43
2017-04-10T03:17:04.539Z,1002.39
2017-04-10T03:17:26.275Z,1002.33
2017-04-10T03:17:47.978Z,1002.27
2017-04-10T03:18:09.770Z,1002.35
2017-04-10T03:18:31.467Z,1002.46
2017-04-10T03:18:53.238Z,1002.37
2017-04-10T03:19:14.953Z,1002.25
2017-04-10T03:19:36.650Z,1002.54
2017-04-10T03:19:58.350Z,1002.62
2017-04-10T03:20:20.051Z,1002.33
2017-04-10T03:20:41.856Z,1002.48
2017-04-10T03:21:03.581Z,1002.39
2017-04-10T03:21:56.647Z,1002.27
2017-04-10T03:22:18.386Z,1002.30
2017-04-10T03:22:40.088Z,1002.21
2017-04-10T03:23:01.867Z,1002.26
2017-04-10T03:23:54.810Z,1002.35
2017-04-10T03:24:16.601Z,1002.25
2017-04-10T03:24:38.301Z,1002.20
2017-04-10T03:24:59.998Z,1002.38
2017-04-10T03:25:21.682Z,1002.41
2017-04-10T03:25:43.389Z,1002.28
2017-04-10T03:26:05.194Z,1002.48
2017-04-10T03:26:26.884Z,1002.44
2017-04-10T03:26:48.600Z,1002.25
2017-04-10T03:27:10.304Z,1002.27
2017-04-10T03:27:32.164Z,1002.17
2017-04-10T03:27:53.875Z,1002.44
2017-04-10T03:28:15.594Z,1002.40
2017-04-10T03:28:37.382Z,1002.15
2017-04-10T03:29:03.854Z,1002.16
2017-04-10T03:29:25.551Z,1002.39
2017-04-10T03:29:52.028Z,1002.36
2017-04-10T03:30:13.827Z,1002.41
2017-04-10T03:30:40.312Z,1002.38
2017-04-10T03:31:02.034Z,1002.46
2017-04-10T03:31:23.872Z,1002.31
2017-04-10T03:31:45.580Z,1002.32
2017-04-10T03:32:07.272Z,1002.21
2017-04-10T03:32:29.055Z,1002.04
2017-04-10T03:32:55.535Z,1002.15
2017-04-10T03:33:17.229Z,1002.14
2017-04-10T03:33:38.914Z,1002.31
2017-04-10T03:34:31.958Z,1002.14
2017-04-10T03:34:53.664Z,1002.30
2017-04-10T03:35:15.366Z,1002.13
2017-04-10T03:35:37.145Z,1002.30
2017-04-10T03:36:03.622Z,1002.35
2017-04-10T03:36:25.349Z,1002.31
2017-04-10T03:37:18.394Z,1002.10
2017-04-10T03:37:40.120Z,1002.30
2017-04-10T03:38:01.832Z,1002.19
2017-04-10T03:38:23.626Z,1002.13
2017-04-10T03:39:16.573Z,1002.40
2017-04-10T03:39:38.350Z,1002.25
2017-04-10T03:40:00.053Z,1002.18
2017-04-10T03:40:21.741Z,1002.19
2017-04-10T03:40:48.216Z,1002.13
2017-04-10T03:41:10.019Z,1002.28
2017-04-10T03:42:08.430Z,1002.17
2017-04-10T03:42:30.125Z,1002.21
2017-04-10T03:42:51.828Z,1002.20
2017-04-10T03:43:50.216Z,1002.15
2017-04-10T03:44:11.909Z,1002.47
2017-04-10T03:44:33.610Z,1002.30
2017-04-10T03:45:00.089Z,1002.29
2017-04-10T03:45:21.883Z,1002.35
2017-04-10T03:45:48.371Z,1002.24
2017-04-10T03:46:10.157Z,1002.25
2017-04-10T03:46:31.876Z,1002.21
2017-04-10T03:46:53.574Z,1002.27
2017-04-10T03:47:15.295Z,1002.23
2017-04-10T03:47:37.088Z,1002.16
2017-04-10T03:47:58.795Z,1001.96
2017-04-10T03:48:20.490Z,1002.27
2017-04-10T03:48:42.199Z,1002.24
2017-04-10T03:49:35.262Z,1002.03
2017-04-10T03:49:56.958Z,1002.17
2017-04-10T03:50:23.426Z,1002.12
2017-04-10T03:50:45.211Z,1002.51
2017-04-10T03:51:06.908Z,1002.11
2017-04-10T03:51:33.415Z,1002.33
2017-04-10T03:51:55.220Z,1002.36
2017-04-10T03:52:48.153Z,1002.23
2017-04-10T03:53:09.954Z,1002.09
2017-04-10T03:53:36.416Z,1002.28
2017-04-10T03:53:58.113Z,1002.30
2017-04-10T03:54:19.897Z,1002.22
2017-04-10T03:54:46.370Z,1002.19
2017-04-10T03:55:08.067Z,1002.37
2017-04-10T03:55:29.765Z,1002.37
2017-04-10T03:55:51.577Z,1002.41
2017-04-10T03:56:13.282Z,1002.13
2017-04-10T03:56:35.008Z,1002.05
2017-04-10T03:57:01.522Z,1001.94
2017-04-10T03:57:23.330Z,1002.12
2017-04-10T03:58:21.732Z,1002.08
2017-04-10T03:58:43.447Z,1002.16
2017-04-10T03:59:09.939Z,1002.23
2017-04-10T03:59:31.631Z,1002.40
2017-04-10T03:59:53.420Z,1002.16
2017-04-10T04:00:19.898Z,1002.17
2017-04-10T04:00:41.626Z,1002.15
2017-04-10T04:01:08.121Z,1002.20
2017-04-10T04:01:34.601Z,1002.56
2017-04-10T04:01:56.303Z,1002.35
2017-04-10T04:02:18.004Z,1002.18
2017-04-10T04:02:39.787Z,1002.17
2017-04-10T04:03:32.749Z,1002.29
2017-04-10T04:03:54.533Z,1002.18
2017-04-10T04:04:16.229Z,1002.16
2017-04-10T04:04:37.918Z,1002.03
2017-04-10T04:04:59.615Z,1002.05
2017-04-10T04:05:21.405Z,1002.34
2017-04-10T04:05:43.097Z,1002.26
2017-04-10T04:06:09.575Z,1002.33
2017-04-10T04:06:31.366Z,1002.30
2017-04-10T04:06:57.840Z,1002.04
2017-04-10T04:07:19.552Z,1002.50
2017-04-10T04:07:41.247Z,1002.20
2017-04-10T04:08:03.030Z,1002.21
2017-04-10T04:08:24.728Z,1002.42
2017-04-10T04:08:46.423Z,1002.40
2017-04-10T04:09:08.218Z,1002.31
2017-04-10T04:09:34.698Z,1002.32
2017-04-10T04:09:56.390Z,1002.26
2017-04-10T04:10:18.097Z,1002.23
2017-04-10T04:10:39.880Z,1002.32
2017-04-10T04:11:01.576Z,1002.36
2017-04-10T04:11:28.041Z,1002.38
2017-04-10T04:11:49.730Z,1002.32
2017-04-10T04:12:16.286Z,1002.47
2017-04-10T04:12:37.972Z,1002.34
2017-04-10T04:12:59.668Z,1002.52
2017-04-10T04:13:21.448Z,1002.19
2017-04-10T04:13:43.142Z,1002.27
2017-04-10T04:14:04.840Z,1002.32
2017-04-10T04:14:26.536Z,1002.26
2017-04-10T04:14:53.096Z,1002.34
2017-04-10T04:15:14.826Z,1002.37
2017-04-10T04:15:36.640Z,1002.35
2017-04-10T04:15:58.283Z,1002.17
2017-04-10T04:16:19.981Z,1002.55
2017-04-10T04:16:41.674Z,1002.62
2017-04-10T04:17:03.453Z,1002.47
2017-04-10T04:17:25.181Z,1002.15
2017-04-10T04:17:46.903Z,1002.13
2017-04-10T04:18:08.611Z,1002.13
2017-04-10T04:18:30.331Z,1002.19
2017-04-10T04:18:56.820Z,1002.27
2017-04-10T04:19:18.502Z,1002.19
2017-04-10T04:19:40.280Z,1002.25
2017-04-10T04:20:01.982Z,1002.32
2017-04-10T04:20:28.453Z,1002.27
2017-04-10T04:20:50.166Z,1002.15
2017-04-10T04:21:11.962Z,1002.29
2017-04-10T04:22:19.240Z,1002.27
2017-04-10T04:22:41.051Z,1002.24
2017-04-10T04:23:02.759Z,1002.21
2017-04-10T04:23:24.461Z,1002.45
2017-04-10T04:23:46.153Z,1002.50
2017-04-10T04:24:07.929Z,1002.54
2017-04-10T04:24:29.626Z,1002.27
2017-04-10T04:24:51.316Z,1002.53
2017-04-10T04:25:13.012Z,1002.29
2017-04-10T04:25:34.829Z,1002.21
2017-04-10T04:25:56.705Z,1002.34
2017-04-10T04:26:49.747Z,1002.23
2017-04-10T04:27:16.222Z,1002.55
2017-04-10T04:27:38.020Z,1002.37
2017-04-10T04:27:59.827Z,1002.39
2017-04-10T04:29:07.200Z,1002.23
2017-04-10T04:29:29.951Z,1002.17
2017-04-10T04:30:22.941Z,1002.46
2017-04-10T04:31:57.833Z,1002.35
2017-04-10T04:32:19.619Z,1002.46
2017-04-10T04:33:12.646Z,1002.31
2017-04-10T04:33:39.203Z,1002.34
2017-04-10T04:34:00.982Z,1002.47
2017-04-10T04:34:22.776Z,1002.50
2017-04-10T04:34:44.572Z,1002.20
2017-04-10T04:35:06.264Z,1002.12
2017-04-10T04:35:28.072Z,1002.10
2017-04-10T04:35:54.644Z,1002.15
2017-04-10T04:36:16.428Z,1002.74
2017-04-10T04:37:14.738Z,1002.34
2017-04-10T04:37:36.522Z,1002.20
2017-04-10T04:38:39.135Z,1002.43
2017-04-10T04:39:00.838Z,1002.56
2017-04-10T04:39:27.405Z,1002.42
2017-04-10T04:39:49.120Z,1002.37
2017-04-10T04:40:10.814Z,1002.41
2017-04-10T04:40:37.289Z,1002.88
2017-04-10T04:40:59.071Z,1002.32
2017-04-10T04:41:20.849Z,1002.39
2017-04-10T04:41:47.414Z,1002.34
2017-04-10T04:42:09.283Z,1002.62
2017-04-10T04:42:35.766Z,1002.55
2017-04-10T04:42:57.556Z,1002.47
2017-04-10T04:43:24.036Z,1002.60
2017-04-10T04:43:45.837Z,1002.17
2017-04-10T04:44:38.810Z,1002.63
2017-04-10T04:45:00.603Z,1002.41
2017-04-10T04:46:03.184Z,1002.50
2017-04-10T04:46:24.875Z,1002.42
2017-04-10T04:46:46.772Z,1002.34
2017-04-10T04:47:13.229Z,1002.43
2017-04-10T04:47:34.951Z,1002.52
2017-04-10T04:48:28.004Z,1002.58
2017-04-10T04:49:20.951Z,1002.32
2017-04-10T04:49:47.434Z,1002.35
2017-04-10T04:50:09.138Z,1002.30
2017-04-10T04:50:30.844Z,1002.52
2017-04-10T04:51:23.778Z,1002.27
2017-04-10T04:51:45.473Z,1002.57
2017-04-10T04:52:38.414Z,1002.69
2017-04-10T04:53:00.200Z,1002.39
2017-04-10T04:53:26.676Z,1002.31
2017-04-10T04:53:48.446Z,1002.41
2017-04-10T04:54:41.399Z,1002.60
2017-04-10T04:55:03.108Z,1002.52
2017-04-10T04:55:56.065Z,1003.08
2017-04-10T04:56:17.770Z,1003.11
2017-04-10T04:57:05.976Z,1002.44
2017-04-10T04:58:08.498Z,1002.42
2017-04-10T04:59:06.919Z,1002.76
2017-04-10T05:00:09.523Z,1002.30
2017-04-10T05:01:16.890Z,1002.54
2017-04-10T05:01:38.578Z,1002.45
2017-04-10T05:02:00.378Z,1002.49
2017-04-10T05:02:56.090Z,1002.94
2017-04-10T05:03:58.680Z,1002.37
2017-04-10T05:04:20.407Z,1002.50
2017-04-10T05:04:46.993Z,1002.70
2017-04-10T05:05:08.717Z,1002.67
2017-04-10T05:05:30.410Z,1002.44
2017-04-10T05:05:56.984Z,1002.61
2017-04-10T05:06:18.678Z,1002.52
2017-04-10T05:06:40.388Z,1002.46
2017-04-10T05:07:02.188Z,1002.48
2017-04-10T05:07:23.973Z,1002.68
2017-04-10T05:07:45.761Z,1002.63
2017-04-10T05:08:12.314Z,1002.92
2017-04-10T05:08:34.113Z,1002.57
2017-04-10T05:08:55.885Z,1002.37
2017-04-10T05:09:22.456Z,1002.35
2017-04-10T05:09:44.338Z,1002.49
2017-04-10T05:10:46.730Z,1002.58
2017-04-10T05:11:08.512Z,1002.42
2017-04-10T05:11:35.080Z,1002.56
2017-04-10T05:11:56.878Z,1002.85
2017-04-10T05:12:18.671Z,1002.63
2017-04-10T05:13:11.723Z,1002.64
2017-04-10T05:13:33.432Z,1002.59
2017-04-10T05:14:26.405Z,1002.68
2017-04-10T05:14:48.188Z,1002.62
2017-04-10T05:15:14.753Z,1002.62
2017-04-10T05:15:36.456Z,1002.48
2017-04-10T05:15:58.144Z,1002.55
2017-04-10T05:16:24.711Z,1002.41
2017-04-10T05:16:46.522Z,1002.41
2017-04-10T05:17:08.203Z,1002.62
2017-04-10T05:17:29.907Z,1002.57
2017-04-10T05:17:51.597Z,1002.45
2017-04-10T05:18:44.674Z,1002.72
2017-04-10T05:19:15.944Z,1002.47
2017-04-10T05:19:42.533Z,1002.44
2017-04-10T05:20:09.013Z,1002.65
2017-04-10T05:20:30.914Z,1002.63
2017-04-10T05:21:29.335Z,1002.56
2017-04-10T05:21:51.031Z,1002.50
2017-04-10T05:22:44.054Z,1002.33
2017-04-10T05:23:05.747Z,1002.58
2017-04-10T05:23:32.223Z,1002.88
2017-04-10T05:23:54.019Z,1002.52
2017-04-10T05:24:15.758Z,1002.55
2017-04-10T05:24:42.231Z,1002.35
2017-04-10T05:25:03.929Z,1002.42
2017-04-10T05:25:25.730Z,1002.64
2017-04-10T05:25:47.436Z,1002.80
2017-04-10T05:26:09.136Z,1002.66
2017-04-10T05:26:30.821Z,1002.85
2017-04-10T05:27:23.868Z,1002.37
2017-04-10T05:27:45.572Z,1002.59
2017-04-10T05:28:07.280Z,1002.49
2017-04-10T05:28:29.073Z,1002.60
2017-04-10T05:28:50.769Z,1002.47
2017-04-10T05:29:17.277Z,1002.35
2017-04-10T05:29:39.082Z,1002.44